sensor_id;sensor_type;location;lat;lon;timestamp;temperature;humidity
31391;DHT22;18022;45.492;11.548;2022-09-09T00:02:22;21.30;99.90
31391;DHT22;18022;45.492;11.548;2022-09-09T00:08:03;21.40;99.90
31391;DHT22;18022;45.492;11.548;2022-09-09T00:18:47;21.10;99.90
31391;DHT22;18022;45.492;11.548;2022-09-09T00:21:15;21.10;99.90
31391;DHT22;18022;45.492;11.548;2022-09-09T00:23:50;21.10;99.90
31391;DHT22;18022;45.492;11.548;2022-09-09T00:26:38;21.00;99.90
31391;DHT22;18022;45.492;11.548;2022-09-09T00:29:23;21.00;99.90
31391;DHT22;18022;45.492;11.548;2022-09-09T00:31:57;20.90;99.90
31391;DHT22;18022;45.492;11.548;2022-09-09T00:34:26;21.00;99.90
31391;DHT22;18022;45.492;11.548;2022-09-09T00:36:54;20.90;99.90
31391;DHT22;18022;45.492;11.548;2022-09-09T00:44:20;20.90;99.90
31391;DHT22;18022;45.492;11.548;2022-09-09T00:57:38;20.90;99.90
31391;DHT22;18022;45.492;11.548;2022-09-09T01:05:52;20.90;99.90
31391;DHT22;18022;45.492;11.548;2022-09-09T01:17:25;20.90;99.90
31391;DHT22;18022;45.492;11.548;2022-09-09T01:22:44;20.90;99.90
31391;DHT22;18022;45.492;11.548;2022-09-09T01:28:16;20.90;99.90
31391;DHT22;18022;45.492;11.548;2022-09-09T01:30:44;20.80;99.90
31391;DHT22;18022;45.492;11.548;2022-09-09T01:33:15;20.80;99.90
31391;DHT22;18022;45.492;11.548;2022-09-09T01:36:00;20.80;99.90
31391;DHT22;18022;45.492;11.548;2022-09-09T01:38:29;20.60;99.90
31391;DHT22;18022;45.492;11.548;2022-09-09T01:40:56;20.70;99.90
31391;DHT22;18022;45.492;11.548;2022-09-09T01:43:24;20.60;99.90
31391;DHT22;18022;45.492;11.548;2022-09-09T01:45:54;20.50;99.90
31391;DHT22;18022;45.492;11.548;2022-09-09T01:48:22;20.50;99.90
31391;DHT22;18022;45.492;11.548;2022-09-09T01:50:48;20.50;99.90
31391;DHT22;18022;45.492;11.548;2022-09-09T01:53:16;20.50;99.90
31391;DHT22;18022;45.492;11.548;2022-09-09T01:55:43;20.30;99.90
31391;DHT22;18022;45.492;11.548;2022-09-09T02:01:33;20.40;99.90
31391;DHT22;18022;45.492;11.548;2022-09-09T02:04:06;20.50;99.90
31391;DHT22;18022;45.492;11.548;2022-09-09T02:06:44;20.50;99.90
31391;DHT22;18022;45.492;11.548;2022-09-09T02:09:12;20.60;99.90
31391;DHT22;18022;45.492;11.548;2022-09-09T02:11:38;20.60;99.90
31391;DHT22;18022;45.492;11.548;2022-09-09T02:14:17;20.50;99.90
31391;DHT22;18022;45.492;11.548;2022-09-09T02:16:50;20.60;99.90
31391;DHT22;18022;45.492;11.548;2022-09-09T02:19:25;20.60;99.90
31391;DHT22;18022;45.492;11.548;2022-09-09T02:21:55;20.60;99.90
31391;DHT22;18022;45.492;11.548;2022-09-09T02:24:22;20.60;99.90
31391;DHT22;18022;45.492;11.548;2022-09-09T02:26:50;20.60;99.90
31391;DHT22;18022;45.492;11.548;2022-09-09T02:29:25;20.50;99.90
31391;DHT22;18022;45.492;11.548;2022-09-09T02:31:52;20.60;99.90
31391;DHT22;18022;45.492;11.548;2022-09-09T02:34:22;20.60;99.90
31391;DHT22;18022;45.492;11.548;2022-09-09T02:36:51;20.50;99.90
31391;DHT22;18022;45.492;11.548;2022-09-09T02:39:19;20.40;99.90
31391;DHT22;18022;45.492;11.548;2022-09-09T02:41:44;20.50;99.90
31391;DHT22;18022;45.492;11.548;2022-09-09T02:44:12;20.60;99.90
31391;DHT22;18022;45.492;11.548;2022-09-09T02:52:30;20.70;99.90
31391;DHT22;18022;45.492;11.548;2022-09-09T02:55:05;20.70;99.90
31391;DHT22;18022;45.492;11.548;2022-09-09T02:57:33;20.70;99.90
31391;DHT22;18022;45.492;11.548;2022-09-09T02:59:59;20.80;99.90
31391;DHT22;18022;45.492;11.548;2022-09-09T03:02:26;20.80;99.90
31391;DHT22;18022;45.492;11.548;2022-09-09T03:04:52;20.80;99.90
31391;DHT22;18022;45.492;11.548;2022-09-09T03:07:21;20.90;99.90
31391;DHT22;18022;45.492;11.548;2022-09-09T03:09:47;20.90;99.90
31391;DHT22;18022;45.492;11.548;2022-09-09T03:12:13;20.90;99.90
31391;DHT22;18022;45.492;11.548;2022-09-09T03:14:39;21.00;99.90
31391;DHT22;18022;45.492;11.548;2022-09-09T03:17:05;21.00;99.90
31391;DHT22;18022;45.492;11.548;2022-09-09T03:19:31;20.90;99.90
31391;DHT22;18022;45.492;11.548;2022-09-09T03:21:57;21.00;99.90
31391;DHT22;18022;45.492;11.548;2022-09-09T03:24:24;21.00;99.90
31391;DHT22;18022;45.492;11.548;2022-09-09T03:26:49;20.90;99.90
31391;DHT22;18022;45.492;11.548;2022-09-09T03:29:16;20.90;99.90
31391;DHT22;18022;45.492;11.548;2022-09-09T03:31:43;21.00;99.90
31391;DHT22;18022;45.492;11.548;2022-09-09T03:34:08;20.90;99.90
31391;DHT22;18022;45.492;11.548;2022-09-09T03:36:34;21.00;99.90
31391;DHT22;18022;45.492;11.548;2022-09-09T03:38:59;21.00;99.90
31391;DHT22;18022;45.492;11.548;2022-09-09T03:41:26;21.00;99.90
31391;DHT22;18022;45.492;11.548;2022-09-09T03:43:53;20.90;99.90
31391;DHT22;18022;45.492;11.548;2022-09-09T03:46:21;21.10;99.90
31391;DHT22;18022;45.492;11.548;2022-09-09T03:48:47;21.10;99.90
31391;DHT22;18022;45.492;11.548;2022-09-09T03:51:13;21.10;99.90
31391;DHT22;18022;45.492;11.548;2022-09-09T03:53:39;21.00;99.90
31391;DHT22;18022;45.492;11.548;2022-09-09T03:56:05;21.00;99.90
31391;DHT22;18022;45.492;11.548;2022-09-09T03:58:33;21.10;99.90
31391;DHT22;18022;45.492;11.548;2022-09-09T04:01:00;21.10;99.90
31391;DHT22;18022;45.492;11.548;2022-09-09T04:03:26;21.10;99.90
31391;DHT22;18022;45.492;11.548;2022-09-09T04:05:53;21.10;99.90
31391;DHT22;18022;45.492;11.548;2022-09-09T04:08:20;21.00;99.90
31391;DHT22;18022;45.492;11.548;2022-09-09T04:10:48;21.10;99.90
31391;DHT22;18022;45.492;11.548;2022-09-09T04:13:14;21.10;99.90
31391;DHT22;18022;45.492;11.548;2022-09-09T04:15:42;21.20;99.90
31391;DHT22;18022;45.492;11.548;2022-09-09T04:18:08;21.10;99.90
31391;DHT22;18022;45.492;11.548;2022-09-09T04:20:35;21.10;99.90
31391;DHT22;18022;45.492;11.548;2022-09-09T04:23:01;21.20;99.90
31391;DHT22;18022;45.492;11.548;2022-09-09T04:25:27;21.10;99.90
31391;DHT22;18022;45.492;11.548;2022-09-09T04:27:56;21.10;99.90
31391;DHT22;18022;45.492;11.548;2022-09-09T04:30:23;21.10;99.90
31391;DHT22;18022;45.492;11.548;2022-09-09T04:32:49;21.00;99.90
31391;DHT22;18022;45.492;11.548;2022-09-09T04:35:14;21.10;99.90
31391;DHT22;18022;45.492;11.548;2022-09-09T04:37:40;21.00;99.90
31391;DHT22;18022;45.492;11.548;2022-09-09T04:40:07;20.90;99.90
31391;DHT22;18022;45.492;11.548;2022-09-09T04:42:38;20.90;99.90
31391;DHT22;18022;45.492;11.548;2022-09-09T04:45:05;20.90;99.90
31391;DHT22;18022;45.492;11.548;2022-09-09T04:47:31;20.90;99.90
31391;DHT22;18022;45.492;11.548;2022-09-09T04:49:57;21.00;99.90
31391;DHT22;18022;45.492;11.548;2022-09-09T04:52:23;21.10;99.90
31391;DHT22;18022;45.492;11.548;2022-09-09T04:54:48;21.10;99.90
31391;DHT22;18022;45.492;11.548;2022-09-09T04:57:14;21.20;99.90
31391;DHT22;18022;45.492;11.548;2022-09-09T04:59:39;21.20;99.90
31391;DHT22;18022;45.492;11.548;2022-09-09T05:02:06;21.20;99.90
31391;DHT22;18022;45.492;11.548;2022-09-09T05:04:32;21.20;99.90
31391;DHT22;18022;45.492;11.548;2022-09-09T05:06:58;21.20;99.90
31391;DHT22;18022;45.492;11.548;2022-09-09T05:09:24;21.20;99.90
31391;DHT22;18022;45.492;11.548;2022-09-09T05:11:50;21.30;99.90
31391;DHT22;18022;45.492;11.548;2022-09-09T05:14:16;21.30;99.90
31391;DHT22;18022;45.492;11.548;2022-09-09T05:16:44;21.20;99.90
31391;DHT22;18022;45.492;11.548;2022-09-09T05:19:10;21.20;99.90
31391;DHT22;18022;45.492;11.548;2022-09-09T05:21:35;21.30;99.90
31391;DHT22;18022;45.492;11.548;2022-09-09T05:24:01;21.30;99.90
31391;DHT22;18022;45.492;11.548;2022-09-09T05:26:27;21.40;99.90
31391;DHT22;18022;45.492;11.548;2022-09-09T05:28:54;21.40;99.90
31391;DHT22;18022;45.492;11.548;2022-09-09T05:31:21;21.40;99.90
31391;DHT22;18022;45.492;11.548;2022-09-09T05:33:47;21.40;99.90
31391;DHT22;18022;45.492;11.548;2022-09-09T05:36:18;21.40;99.90
31391;DHT22;18022;45.492;11.548;2022-09-09T05:38:44;21.40;99.90
31391;DHT22;18022;45.492;11.548;2022-09-09T05:41:11;21.40;99.90
31391;DHT22;18022;45.492;11.548;2022-09-09T05:43:38;21.30;99.90
31391;DHT22;18022;45.492;11.548;2022-09-09T05:48:35;21.30;99.90
31391;DHT22;18022;45.492;11.548;2022-09-09T05:51:03;21.20;99.90
31391;DHT22;18022;45.492;11.548;2022-09-09T05:53:30;21.30;99.90
31391;DHT22;18022;45.492;11.548;2022-09-09T05:56:07;21.30;99.90
31391;DHT22;18022;45.492;11.548;2022-09-09T05:58:36;21.40;99.90
31391;DHT22;18022;45.492;11.548;2022-09-09T06:01:04;21.40;99.90
31391;DHT22;18022;45.492;11.548;2022-09-09T06:03:29;21.40;99.90
31391;DHT22;18022;45.492;11.548;2022-09-09T06:06:03;21.40;99.90
31391;DHT22;18022;45.492;11.548;2022-09-09T06:08:36;21.40;99.90
31391;DHT22;18022;45.492;11.548;2022-09-09T06:11:05;21.40;99.90
31391;DHT22;18022;45.492;11.548;2022-09-09T06:13:32;21.50;99.90
31391;DHT22;18022;45.492;11.548;2022-09-09T06:15:58;21.50;99.90
31391;DHT22;18022;45.492;11.548;2022-09-09T06:18:24;21.60;99.90
31391;DHT22;18022;45.492;11.548;2022-09-09T06:20:58;21.60;99.90
31391;DHT22;18022;45.492;11.548;2022-09-09T06:23:24;21.50;99.90
31391;DHT22;18022;45.492;11.548;2022-09-09T06:25:51;21.60;99.90
31391;DHT22;18022;45.492;11.548;2022-09-09T06:28:18;21.70;99.90
31391;DHT22;18022;45.492;11.548;2022-09-09T06:30:44;21.70;99.90
31391;DHT22;18022;45.492;11.548;2022-09-09T06:33:10;21.80;99.90
31391;DHT22;18022;45.492;11.548;2022-09-09T06:35:36;21.90;99.90
31391;DHT22;18022;45.492;11.548;2022-09-09T06:38:02;22.00;99.90
31391;DHT22;18022;45.492;11.548;2022-09-09T06:40:28;22.00;99.90
31391;DHT22;18022;45.492;11.548;2022-09-09T06:42:59;22.10;99.90
31391;DHT22;18022;45.492;11.548;2022-09-09T06:45:25;22.20;99.90
31391;DHT22;18022;45.492;11.548;2022-09-09T06:47:51;22.20;99.90
31391;DHT22;18022;45.492;11.548;2022-09-09T06:50:19;22.30;99.90
31391;DHT22;18022;45.492;11.548;2022-09-09T06:52:48;22.30;99.90
31391;DHT22;18022;45.492;11.548;2022-09-09T06:55:13;22.30;99.90
31391;DHT22;18022;45.492;11.548;2022-09-09T06:57:41;22.40;99.90
31391;DHT22;18022;45.492;11.548;2022-09-09T07:00:07;22.40;99.90
31391;DHT22;18022;45.492;11.548;2022-09-09T07:02:33;22.50;99.90
31391;DHT22;18022;45.492;11.548;2022-09-09T07:05:04;22.60;99.90
31391;DHT22;18022;45.492;11.548;2022-09-09T07:07:30;22.60;99.90
31391;DHT22;18022;45.492;11.548;2022-09-09T07:09:56;22.60;99.90
31391;DHT22;18022;45.492;11.548;2022-09-09T07:12:21;22.70;99.90
31391;DHT22;18022;45.492;11.548;2022-09-09T07:14:47;22.70;99.90
31391;DHT22;18022;45.492;11.548;2022-09-09T07:17:13;22.70;99.90
31391;DHT22;18022;45.492;11.548;2022-09-09T07:19:38;22.80;99.90
31391;DHT22;18022;45.492;11.548;2022-09-09T07:22:04;22.90;99.90
31391;DHT22;18022;45.492;11.548;2022-09-09T07:24:31;23.00;99.90
31391;DHT22;18022;45.492;11.548;2022-09-09T07:26:57;23.00;99.90
31391;DHT22;18022;45.492;11.548;2022-09-09T07:29:22;23.00;99.90
31391;DHT22;18022;45.492;11.548;2022-09-09T07:31:48;23.00;99.90
31391;DHT22;18022;45.492;11.548;2022-09-09T07:34:14;23.10;99.90
31391;DHT22;18022;45.492;11.548;2022-09-09T07:36:40;23.20;99.90
31391;DHT22;18022;45.492;11.548;2022-09-09T07:39:08;23.10;99.90
31391;DHT22;18022;45.492;11.548;2022-09-09T07:41:37;23.20;99.90
31391;DHT22;18022;45.492;11.548;2022-09-09T07:44:11;23.10;99.90
31391;DHT22;18022;45.492;11.548;2022-09-09T07:46:38;23.10;99.90
31391;DHT22;18022;45.492;11.548;2022-09-09T07:49:05;23.10;99.90
31391;DHT22;18022;45.492;11.548;2022-09-09T07:51:36;23.10;99.90
31391;DHT22;18022;45.492;11.548;2022-09-09T07:54:05;23.20;99.90
31391;DHT22;18022;45.492;11.548;2022-09-09T07:56:31;23.20;99.90
31391;DHT22;18022;45.492;11.548;2022-09-09T07:58:58;23.20;99.90
31391;DHT22;18022;45.492;11.548;2022-09-09T08:01:31;23.20;99.90
31391;DHT22;18022;45.492;11.548;2022-09-09T08:04:01;23.30;99.90
31391;DHT22;18022;45.492;11.548;2022-09-09T08:06:47;23.30;99.90
31391;DHT22;18022;45.492;11.548;2022-09-09T08:09:14;23.40;99.90
31391;DHT22;18022;45.492;11.548;2022-09-09T08:11:40;23.50;99.90
31391;DHT22;18022;45.492;11.548;2022-09-09T08:14:08;23.60;99.90
31391;DHT22;18022;45.492;11.548;2022-09-09T08:16:35;23.60;99.90
31391;DHT22;18022;45.492;11.548;2022-09-09T08:19:02;23.60;99.90
31391;DHT22;18022;45.492;11.548;2022-09-09T08:21:30;23.70;99.90
31391;DHT22;18022;45.492;11.548;2022-09-09T08:23:58;23.70;99.90
31391;DHT22;18022;45.492;11.548;2022-09-09T08:26:32;23.80;99.90
31391;DHT22;18022;45.492;11.548;2022-09-09T08:29:01;23.90;99.90
31391;DHT22;18022;45.492;11.548;2022-09-09T08:31:32;23.90;99.90
31391;DHT22;18022;45.492;11.548;2022-09-09T08:34:00;23.70;99.90
31391;DHT22;18022;45.492;11.548;2022-09-09T08:36:28;23.80;99.90
31391;DHT22;18022;45.492;11.548;2022-09-09T08:38:56;23.90;99.90
31391;DHT22;18022;45.492;11.548;2022-09-09T08:55:37;24.60;99.90
31391;DHT22;18022;45.492;11.548;2022-09-09T08:58:19;24.60;99.90
31391;DHT22;18022;45.492;11.548;2022-09-09T09:01:19;24.70;99.90
31391;DHT22;18022;45.492;11.548;2022-09-09T09:06:50;24.40;99.90
31391;DHT22;18022;45.492;11.548;2022-09-09T09:09:46;24.40;99.90
31391;DHT22;18022;45.492;11.548;2022-09-09T09:12:23;24.50;99.90
31391;DHT22;18022;45.492;11.548;2022-09-09T09:14:52;24.50;99.90
31391;DHT22;18022;45.492;11.548;2022-09-09T09:17:20;24.40;99.90
31391;DHT22;18022;45.492;11.548;2022-09-09T09:19:48;24.50;99.90
31391;DHT22;18022;45.492;11.548;2022-09-09T09:22:35;24.50;99.90
31391;DHT22;18022;45.492;11.548;2022-09-09T09:25:23;24.60;99.90
31391;DHT22;18022;45.492;11.548;2022-09-09T09:27:59;24.60;99.90
31391;DHT22;18022;45.492;11.548;2022-09-09T09:30:29;24.60;99.90
31391;DHT22;18022;45.492;11.548;2022-09-09T09:35:25;25.00;99.90
31391;DHT22;18022;45.492;11.548;2022-09-09T09:37:51;25.00;99.90
31391;DHT22;18022;45.492;11.548;2022-09-09T09:40:19;25.00;99.90
31391;DHT22;18022;45.492;11.548;2022-09-09T09:42:52;25.00;99.90
31391;DHT22;18022;45.492;11.548;2022-09-09T09:45:41;24.90;99.90
31391;DHT22;18022;45.492;11.548;2022-09-09T09:48:14;24.80;99.90
31391;DHT22;18022;45.492;11.548;2022-09-09T09:53:29;24.80;99.90
31391;DHT22;18022;45.492;11.548;2022-09-09T09:56:16;24.90;99.90
31391;DHT22;18022;45.492;11.548;2022-09-09T10:01:27;24.90;99.90
31391;DHT22;18022;45.492;11.548;2022-09-09T10:03:58;25.20;99.90
31391;DHT22;18022;45.492;11.548;2022-09-09T10:06:35;25.50;99.90
31391;DHT22;18022;45.492;11.548;2022-09-09T10:09:29;25.60;99.90
31391;DHT22;18022;45.492;11.548;2022-09-09T10:22:49;26.30;99.90
31391;DHT22;18022;45.492;11.548;2022-09-09T10:28:18;26.70;99.90
31391;DHT22;18022;45.492;11.548;2022-09-09T10:33:40;26.00;99.90
31391;DHT22;18022;45.492;11.548;2022-09-09T10:36:24;25.90;99.90
31391;DHT22;18022;45.492;11.548;2022-09-09T10:41:42;26.90;99.90
31391;DHT22;18022;45.492;11.548;2022-09-09T10:46:57;27.60;99.90
31391;DHT22;18022;45.492;11.548;2022-09-09T10:55:02;26.70;99.90
31391;DHT22;18022;45.492;11.548;2022-09-09T10:57:37;26.40;99.90
31391;DHT22;18022;45.492;11.548;2022-09-09T11:00:06;26.30;99.90
31391;DHT22;18022;45.492;11.548;2022-09-09T11:02:39;26.00;99.90
31391;DHT22;18022;45.492;11.548;2022-09-09T11:07:58;25.90;99.90
31391;DHT22;18022;45.492;11.548;2022-09-09T11:12:59;25.80;99.90
31391;DHT22;18022;45.492;11.548;2022-09-09T11:15:50;25.70;99.90
31391;DHT22;18022;45.492;11.548;2022-09-09T11:18:21;25.60;99.90
31391;DHT22;18022;45.492;11.548;2022-09-09T11:20:58;25.50;99.90
31391;DHT22;18022;45.492;11.548;2022-09-09T11:23:37;25.40;99.90
31391;DHT22;18022;45.492;11.548;2022-09-09T11:26:05;25.30;99.90
31391;DHT22;18022;45.492;11.548;2022-09-09T11:42:26;25.20;99.90
31391;DHT22;18022;45.492;11.548;2022-09-09T11:44:52;24.80;99.90
31391;DHT22;18022;45.492;11.548;2022-09-09T11:47:25;23.80;99.90
31391;DHT22;18022;45.492;11.548;2022-09-09T11:50:06;22.80;99.90
31391;DHT22;18022;45.492;11.548;2022-09-09T11:52:45;22.00;99.90
31391;DHT22;18022;45.492;11.548;2022-09-09T11:55:28;21.60;99.90
31391;DHT22;18022;45.492;11.548;2022-09-09T11:58:02;21.30;99.90
31391;DHT22;18022;45.492;11.548;2022-09-09T12:03:43;21.90;99.90
31391;DHT22;18022;45.492;11.548;2022-09-09T12:06:41;22.10;99.90
31391;DHT22;18022;45.492;11.548;2022-09-09T12:09:33;22.10;99.90
31391;DHT22;18022;45.492;11.548;2022-09-09T12:12:26;22.20;99.90
31391;DHT22;18022;45.492;11.548;2022-09-09T12:17:30;21.90;99.90
31391;DHT22;18022;45.492;11.548;2022-09-09T12:20:32;22.00;99.90
31391;DHT22;18022;45.492;11.548;2022-09-09T12:23:19;22.10;99.90
31391;DHT22;18022;45.492;11.548;2022-09-09T12:28:57;22.10;99.90
31391;DHT22;18022;45.492;11.548;2022-09-09T12:39:58;22.00;99.90
31391;DHT22;18022;45.492;11.548;2022-09-09T12:42:25;22.20;99.90
31391;DHT22;18022;45.492;11.548;2022-09-09T12:44:56;22.20;99.90
31391;DHT22;18022;45.492;11.548;2022-09-09T12:50:04;22.10;99.90
31391;DHT22;18022;45.492;11.548;2022-09-09T12:52:35;22.00;99.90
31391;DHT22;18022;45.492;11.548;2022-09-09T12:55:05;22.00;99.90
31391;DHT22;18022;45.492;11.548;2022-09-09T12:57:35;22.00;99.90
31391;DHT22;18022;45.492;11.548;2022-09-09T13:00:15;22.00;99.90
31391;DHT22;18022;45.492;11.548;2022-09-09T13:02:53;22.10;99.90
31391;DHT22;18022;45.492;11.548;2022-09-09T13:05:22;22.10;99.90
31391;DHT22;18022;45.492;11.548;2022-09-09T13:07:48;22.50;99.90
31391;DHT22;18022;45.492;11.548;2022-09-09T13:10:19;22.30;99.90
31391;DHT22;18022;45.492;11.548;2022-09-09T13:12:46;22.30;99.90
31391;DHT22;18022;45.492;11.548;2022-09-09T13:15:21;22.40;99.90
31391;DHT22;18022;45.492;11.548;2022-09-09T13:17:57;22.40;99.90
31391;DHT22;18022;45.492;11.548;2022-09-09T13:20:23;22.60;99.90
31391;DHT22;18022;45.492;11.548;2022-09-09T13:22:51;22.80;99.90
31391;DHT22;18022;45.492;11.548;2022-09-09T13:33:22;23.70;99.90
31391;DHT22;18022;45.492;11.548;2022-09-09T13:38:14;23.60;99.90
31391;DHT22;18022;45.492;11.548;2022-09-09T13:40:40;23.50;99.90
31391;DHT22;18022;45.492;11.548;2022-09-09T13:43:21;23.30;99.90
31391;DHT22;18022;45.492;11.548;2022-09-09T13:45:59;23.40;99.90
31391;DHT22;18022;45.492;11.548;2022-09-09T13:48:26;23.50;99.90
31391;DHT22;18022;45.492;11.548;2022-09-09T13:50:57;23.40;99.90
31391;DHT22;18022;45.492;11.548;2022-09-09T13:53:23;23.80;99.90
31391;DHT22;18022;45.492;11.548;2022-09-09T13:55:50;24.00;99.90
31391;DHT22;18022;45.492;11.548;2022-09-09T13:58:17;23.90;99.90
31391;DHT22;18022;45.492;11.548;2022-09-09T14:00:45;23.90;99.90
31391;DHT22;18022;45.492;11.548;2022-09-09T14:03:11;24.00;99.90
31391;DHT22;18022;45.492;11.548;2022-09-09T14:05:37;24.10;99.90
31391;DHT22;18022;45.492;11.548;2022-09-09T14:08:07;24.20;99.90
31391;DHT22;18022;45.492;11.548;2022-09-09T14:10:36;24.30;99.90
31391;DHT22;18022;45.492;11.548;2022-09-09T14:13:02;24.20;99.90
31391;DHT22;18022;45.492;11.548;2022-09-09T14:15:28;24.30;99.90
31391;DHT22;18022;45.492;11.548;2022-09-09T14:17:54;24.50;99.90
31391;DHT22;18022;45.492;11.548;2022-09-09T14:20:20;24.50;99.90
31391;DHT22;18022;45.492;11.548;2022-09-09T14:22:46;24.40;99.90
31391;DHT22;18022;45.492;11.548;2022-09-09T14:25:12;24.20;99.90
31391;DHT22;18022;45.492;11.548;2022-09-09T14:27:40;24.40;99.90
31391;DHT22;18022;45.492;11.548;2022-09-09T14:30:08;24.20;99.90
31391;DHT22;18022;45.492;11.548;2022-09-09T14:32:34;24.30;99.90
31391;DHT22;18022;45.492;11.548;2022-09-09T14:34:59;24.50;99.90
31391;DHT22;18022;45.492;11.548;2022-09-09T14:37:25;24.30;99.90
31391;DHT22;18022;45.492;11.548;2022-09-09T14:39:52;24.20;99.90
31391;DHT22;18022;45.492;11.548;2022-09-09T14:42:19;24.40;99.90
31391;DHT22;18022;45.492;11.548;2022-09-09T14:44:44;24.50;99.90
31391;DHT22;18022;45.492;11.548;2022-09-09T14:47:10;24.50;99.90
31391;DHT22;18022;45.492;11.548;2022-09-09T14:49:36;24.60;99.90
31391;DHT22;18022;45.492;11.548;2022-09-09T14:52:03;24.40;99.90
31391;DHT22;18022;45.492;11.548;2022-09-09T14:54:29;24.40;99.90
31391;DHT22;18022;45.492;11.548;2022-09-09T14:56:55;24.20;99.90
31391;DHT22;18022;45.492;11.548;2022-09-09T14:59:22;24.30;99.90
31391;DHT22;18022;45.492;11.548;2022-09-09T15:01:48;24.10;99.90
31391;DHT22;18022;45.492;11.548;2022-09-09T15:04:14;24.20;99.90
31391;DHT22;18022;45.492;11.548;2022-09-09T15:06:43;24.30;99.90
31391;DHT22;18022;45.492;11.548;2022-09-09T15:09:13;24.30;99.90
31391;DHT22;18022;45.492;11.548;2022-09-09T15:11:39;24.40;99.90
31391;DHT22;18022;45.492;11.548;2022-09-09T15:14:06;24.30;99.90
31391;DHT22;18022;45.492;11.548;2022-09-09T15:16:33;24.40;99.90
31391;DHT22;18022;45.492;11.548;2022-09-09T15:19:00;24.40;99.90
31391;DHT22;18022;45.492;11.548;2022-09-09T15:21:28;24.40;99.90
31391;DHT22;18022;45.492;11.548;2022-09-09T15:23:55;24.20;99.90
31391;DHT22;18022;45.492;11.548;2022-09-09T15:26:21;24.30;99.90
31391;DHT22;18022;45.492;11.548;2022-09-09T15:28:47;24.30;99.90
31391;DHT22;18022;45.492;11.548;2022-09-09T15:31:15;24.20;99.90
31391;DHT22;18022;45.492;11.548;2022-09-09T15:33:52;24.20;99.90
31391;DHT22;18022;45.492;11.548;2022-09-09T15:36:25;24.20;99.90
31391;DHT22;18022;45.492;11.548;2022-09-09T15:38:52;24.20;99.90
31391;DHT22;18022;45.492;11.548;2022-09-09T15:41:19;24.20;99.90
31391;DHT22;18022;45.492;11.548;2022-09-09T15:43:46;24.20;99.90
31391;DHT22;18022;45.492;11.548;2022-09-09T15:46:32;24.20;99.90
31391;DHT22;18022;45.492;11.548;2022-09-09T15:49:24;24.20;99.90
31391;DHT22;18022;45.492;11.548;2022-09-09T15:51:55;24.10;99.90
31391;DHT22;18022;45.492;11.548;2022-09-09T15:54:23;24.10;99.90
31391;DHT22;18022;45.492;11.548;2022-09-09T15:56:51;24.20;99.90
31391;DHT22;18022;45.492;11.548;2022-09-09T15:59:17;24.20;99.90
31391;DHT22;18022;45.492;11.548;2022-09-09T16:01:43;24.30;99.90
31391;DHT22;18022;45.492;11.548;2022-09-09T16:04:09;24.30;99.90
31391;DHT22;18022;45.492;11.548;2022-09-09T16:06:35;24.20;99.90
31391;DHT22;18022;45.492;11.548;2022-09-09T16:09:04;24.20;99.90
31391;DHT22;18022;45.492;11.548;2022-09-09T16:11:32;24.10;99.90
31391;DHT22;18022;45.492;11.548;2022-09-09T16:13:59;24.20;99.90
31391;DHT22;18022;45.492;11.548;2022-09-09T16:16:27;24.10;99.90
31391;DHT22;18022;45.492;11.548;2022-09-09T16:18:56;24.10;99.90
31391;DHT22;18022;45.492;11.548;2022-09-09T16:21:27;24.00;99.90
31391;DHT22;18022;45.492;11.548;2022-09-09T16:23:57;24.10;99.90
31391;DHT22;18022;45.492;11.548;2022-09-09T16:26:25;24.10;99.90
31391;DHT22;18022;45.492;11.548;2022-09-09T16:28:50;23.90;99.90
31391;DHT22;18022;45.492;11.548;2022-09-09T16:31:21;23.70;99.90
31391;DHT22;18022;45.492;11.548;2022-09-09T16:33:47;23.80;99.90
31391;DHT22;18022;45.492;11.548;2022-09-09T16:36:16;23.80;99.90
31391;DHT22;18022;45.492;11.548;2022-09-09T16:38:42;23.80;99.90
31391;DHT22;18022;45.492;11.548;2022-09-09T16:41:10;23.80;99.90
31391;DHT22;18022;45.492;11.548;2022-09-09T16:43:36;23.70;99.90
31391;DHT22;18022;45.492;11.548;2022-09-09T16:46:03;23.60;99.90
31391;DHT22;18022;45.492;11.548;2022-09-09T16:48:35;23.50;99.90
31391;DHT22;18022;45.492;11.548;2022-09-09T16:51:05;23.60;99.90
31391;DHT22;18022;45.492;11.548;2022-09-09T16:53:32;23.60;99.90
31391;DHT22;18022;45.492;11.548;2022-09-09T16:55:57;23.50;99.90
31391;DHT22;18022;45.492;11.548;2022-09-09T16:58:23;23.50;99.90
31391;DHT22;18022;45.492;11.548;2022-09-09T17:00:49;23.50;99.90
31391;DHT22;18022;45.492;11.548;2022-09-09T17:03:16;23.50;99.90
31391;DHT22;18022;45.492;11.548;2022-09-09T17:05:42;23.40;99.90
31391;DHT22;18022;45.492;11.548;2022-09-09T17:08:08;23.20;99.90
31391;DHT22;18022;45.492;11.548;2022-09-09T17:10:39;23.10;99.90
31391;DHT22;18022;45.492;11.548;2022-09-09T17:13:05;23.20;99.90
31391;DHT22;18022;45.492;11.548;2022-09-09T17:15:30;23.10;99.90
31391;DHT22;18022;45.492;11.548;2022-09-09T17:17:56;23.00;99.90
31391;DHT22;18022;45.492;11.548;2022-09-09T17:20:22;22.80;99.90
31391;DHT22;18022;45.492;11.548;2022-09-09T17:22:47;22.70;99.90
31391;DHT22;18022;45.492;11.548;2022-09-09T17:25:14;22.70;99.90
31391;DHT22;18022;45.492;11.548;2022-09-09T17:27:40;22.60;99.90
31391;DHT22;18022;45.492;11.548;2022-09-09T17:30:06;22.50;99.90
31391;DHT22;18022;45.492;11.548;2022-09-09T17:32:32;22.50;99.90
31391;DHT22;18022;45.492;11.548;2022-09-09T17:34:57;22.40;99.90
31391;DHT22;18022;45.492;11.548;2022-09-09T17:37:23;22.30;99.90
31391;DHT22;18022;45.492;11.548;2022-09-09T17:39:49;22.20;99.90
31391;DHT22;18022;45.492;11.548;2022-09-09T17:42:15;22.20;99.90
31391;DHT22;18022;45.492;11.548;2022-09-09T17:44:40;22.10;99.90
31391;DHT22;18022;45.492;11.548;2022-09-09T17:47:07;22.00;99.90
31391;DHT22;18022;45.492;11.548;2022-09-09T17:49:32;21.90;99.90
31391;DHT22;18022;45.492;11.548;2022-09-09T17:51:59;21.80;99.90
31391;DHT22;18022;45.492;11.548;2022-09-09T17:54:24;21.60;99.90
31391;DHT22;18022;45.492;11.548;2022-09-09T17:56:50;22.30;99.90
31391;DHT22;18022;45.492;11.548;2022-09-09T17:59:17;22.60;99.90
31391;DHT22;18022;45.492;11.548;2022-09-09T18:01:45;22.50;99.90
31391;DHT22;18022;45.492;11.548;2022-09-09T18:04:12;22.40;99.90
31391;DHT22;18022;45.492;11.548;2022-09-09T18:06:41;22.20;99.90
31391;DHT22;18022;45.492;11.548;2022-09-09T18:09:10;22.00;99.90
31391;DHT22;18022;45.492;11.548;2022-09-09T18:11:45;21.90;99.90